This is the latest recevied weather packets stored in our database for station/object W7SA-12. If no packets are shown the sender has not sent any weather packets the latest 10 day(s).
| Time | Temp. | Humidity | Pressure | Rain* | Wind** | Luminosity | Snow |
|---|---|---|---|---|---|---|---|
| 1777706302 | 17.78° C | 31% | 1014 hPa | 0 mm | - | - | - |
| 1777706269 | 17.22° C | 31% | 1014 hPa | 0 mm | - | - | - |
| 1777706000 | 17.78° C | 31% | 1014 hPa | 0 mm | - | - | - |
| 1777705969 | 17.78° C | 31% | 1014 hPa | 0 mm | - | - | - |
| 1777705698 | 17.78° C | 31% | 1014 hPa | 0 mm | - | - | - |
| 1777705669 | 17.78° C | 31% | 1014 hPa | 0 mm | - | - | - |
| 1777705419 | 18.33° C | 31% | 1014 hPa | 0 mm | - | - | - |
| 1777705369 | 17.78° C | 31% | 1014 hPa | 0 mm | - | - | - |
| 1777705159 | 18.89° C | 30% | 1014 hPa | 0 mm | - | - | - |
| 1777705069 | 18.33° C | 31% | 1014 hPa | 0 mm | - | - | - |
| 1777704837 | 19.44° C | 28% | 1014 hPa | 0 mm | - | - | - |
| 1777704769 | 18.89° C | 30% | 1014 hPa | 0 mm | - | - | - |
| 1777704469 | 20° C | 26% | 1014 hPa | 0 mm | - | - | - |
| 1777704469 | 19.44° C | 28% | 1014 hPa | 0 mm | - | - | - |
| 1777704237 | 21.11° C | 25% | 1014 hPa | 0 mm | - | - | - |
| 1777704170 | 20° C | 26% | 1014 hPa | 0 mm | - | - | - |
| 1777703869 | 21.11° C | 25% | 1014 hPa | 0 mm | - | - | - |
| 1777703824 | 22.22° C | 25% | 1014 hPa | 0 mm | - | - | - |
| 1777703601 | 22.78° C | 25% | 1014 hPa | 0 mm | - | - | - |
| 1777703569 | 22.22° C | 25% | 1014 hPa | 0 mm | - | - | - |
| 1777703270 | 22.78° C | 25% | 1014 hPa | 0 mm | - | - | - |
| 1777703269 | 22.78° C | 25% | 1014 hPa | 0 mm | - | - | - |
| 1777702969 | 22.78° C | 25% | 1014 hPa | 0 mm | - | - | - |
| 1777702916 | 22.78° C | 25% | 1014 hPa | 0 mm | - | - | - |
| 1777702693 | 22.78° C | 25% | 1014 hPa | 0 mm | - | - | - |
* Rain latest hour (hover to see other rain measurements)
** Current wind speed in m/s (hover to see current wind gust speed)